Time;durP1;ratioP1;P1;durP2;ratioP2;P2;SDS_P1;SDS_P2;PMS_P1;PMS_P2;Temp;Humidity;BMP_temperature;BMP_pressure;BME280_temperature;BME280_humidity;BME280_pressure;Samples;Min_cycle;Max_cycle;Signal;HPM_P1;HPM_P2
2021/09/28 00:01:13;;;;;;;27.40;14.95;;;;;;;18.16;98.30;96742.75;5076929;28;20852;-72
2021/09/28 00:03:40;;;;;;;28.83;14.82;;;;;;;18.07;98.40;96739.50;5077394;28;20196;-72
2021/09/28 00:06:08;;;;;;;29.42;15.07;;;;;;;18.22;99.14;96745.44;5076708;28;20207;-72
2021/09/28 00:08:36;;;;;;;32.83;16.00;;;;;;;18.05;99.19;96751.41;5076903;28;20203;-72
2021/09/28 00:11:03;;;;;;;31.15;15.15;;;;;;;18.13;99.30;96759.22;5076802;28;20235;-73
2021/09/28 00:13:29;;;;;;;27.85;14.63;;;;;;;17.98;98.12;96751.44;5077269;28;20219;-72
2021/09/28 00:15:56;;;;;;;27.38;13.95;;;;;;;17.91;97.52;96749.84;5076402;28;20207;-73
2021/09/28 00:18:23;;;;;;;29.30;14.73;;;;;;;17.97;97.54;96748.97;5076817;28;20574;-72
2021/09/28 00:20:49;;;;;;;29.17;15.20;;;;;;;17.96;98.03;96758.00;5077181;28;20442;-72
2021/09/28 00:23:17;;;;;;;28.77;15.40;;;;;;;18.10;98.96;96754.28;5076722;28;20211;-72
2021/09/28 00:25:45;;;;;;;30.42;15.65;;;;;;;17.98;99.95;96750.63;5075677;28;20211;-72
2021/09/28 00:28:11;;;;;;;24.38;13.82;;;;;;;17.98;97.18;96756.78;5076381;28;20576;-72
2021/09/28 00:30:38;;;;;;;30.58;14.10;;;;;;;17.95;97.73;96751.06;5076857;28;20198;-72
2021/09/28 00:33:04;;;;;;;23.83;13.70;;;;;;;17.93;97.86;96753.09;5076927;28;20204;-72
2021/09/28 00:35:31;;;;;;;24.10;13.75;;;;;;;17.98;96.98;96751.44;5075869;28;20203;-73
2021/09/28 00:37:57;;;;;;;23.48;13.60;;;;;;;18.02;97.16;96751.84;5076667;28;20211;-72
2021/09/28 00:40:25;;;;;;;26.85;13.43;;;;;;;18.24;96.92;96746.06;5076496;28;20309;-72
2021/09/28 00:42:52;;;;;;;23.85;13.05;;;;;;;18.08;96.59;96751.81;5076321;28;20210;-72
2021/09/28 00:45:18;;;;;;;22.50;12.50;;;;;;;18.05;96.95;96748.75;5076111;28;20530;-71
2021/09/28 00:47:45;;;;;;;25.00;13.27;;;;;;;18.06;96.35;96753.91;5076253;28;20203;-72
2021/09/28 00:50:11;;;;;;;27.35;13.73;;;;;;;18.06;96.67;96748.56;5076252;28;20200;-72
2021/09/28 00:52:38;;;;;;;26.15;13.63;;;;;;;18.05;97.05;96751.41;5076242;28;20387;-72
2021/09/28 00:55:05;;;;;;;24.80;12.77;;;;;;;18.12;96.92;96749.56;5076509;28;20208;-72
2021/09/28 00:57:34;;;;;;;24.63;14.73;;;;;;;18.23;96.98;96755.09;5075331;28;20587;-72
2021/09/28 01:00:01;;;;;;;27.05;14.07;;;;;;;18.14;98.03;96760.81;5076104;28;20703;-72
2021/09/28 01:02:28;;;;;;;26.50;14.63;;;;;;;18.04;98.19;96757.81;5076550;28;20679;-72
2021/09/28 01:04:54;;;;;;;34.10;17.23;;;;;;;17.93;99.70;96763.78;5076414;28;20228;-72
2021/09/28 01:07:21;;;;;;;27.38;15.70;;;;;;;18.03;99.36;96769.50;5074932;28;20214;-72
2021/09/28 01:09:47;;;;;;;32.42;16.75;;;;;;;18.10;99.10;96764.94;5076920;28;20196;-72
2021/09/28 01:12:14;;;;;;;33.40;17.48;;;;;;;18.09;99.52;96774.81;5076086;28;20234;-73
2021/09/28 01:14:44;;;;;;;28.30;15.50;;;;;;;18.21;99.39;96772.34;5075610;28;20207;-72
2021/09/28 01:17:12;;;;;;;33.53;15.93;;;;;;;18.11;100.00;96772.72;5075519;28;20199;-72
2021/09/28 01:19:39;;;;;;;31.65;16.58;;;;;;;18.04;100.00;96771.94;5075915;28;20498;-72
2021/09/28 01:22:08;;;;;;;31.50;16.20;;;;;;;18.05;100.00;96778.09;5075785;28;20794;-72
2021/09/28 01:24:34;;;;;;;34.22;16.50;;;;;;;17.88;100.00;96776.91;5076389;28;20206;-72
2021/09/28 01:27:01;;;;;;;29.70;15.50;;;;;;;17.83;100.00;96777.56;5075624;28;20199;-72
2021/09/28 01:29:27;;;;;;;30.73;15.90;;;;;;;18.03;99.83;96780.97;5075744;28;20195;-72
2021/09/28 01:31:54;;;;;;;29.23;15.55;;;;;;;17.87;100.00;96786.75;5076111;28;20351;-72
2021/09/28 01:34:22;;;;;;;29.10;15.27;;;;;;;17.81;100.00;96789.44;5076130;28;20207;-73
2021/09/28 01:36:49;;;;;;;31.08;15.63;;;;;;;17.81;100.00;96797.44;5074956;28;20203;-72
2021/09/28 01:39:17;;;;;;;33.30;15.68;;;;;;;17.79;100.00;96807.47;5076131;28;20219;-72
2021/09/28 01:41:43;;;;;;;31.38;16.58;;;;;;;17.34;100.00;96800.34;5076033;28;20228;-72
2021/09/28 01:44:13;;;;;;;29.48;14.68;;;;;;;17.16;100.00;96808.09;5075701;28;20200;-72
2021/09/28 01:46:42;;;;;;;29.42;14.80;;;;;;;17.24;100.00;96813.25;5074874;28;20199;-72
2021/09/28 01:49:10;;;;;;;20.58;12.05;;;;;;;17.01;100.00;96811.16;5075757;28;20200;-72
2021/09/28 01:51:36;;;;;;;18.42;11.13;;;;;;;16.93;100.00;96816.66;5076091;28;20220;-72
2021/09/28 01:54:04;;;;;;;16.90;9.57;;;;;;;17.03;100.00;96819.75;5075715;28;20204;-71
2021/09/28 01:56:32;;;;;;;12.52;8.30;;;;;;;17.07;100.00;96813.00;5075221;28;20205;-72
2021/09/28 01:59:00;;;;;;;13.32;8.00;;;;;;;16.96;100.00;96824.25;5079777;28;20219;-72
2021/09/28 02:01:27;;;;;;;11.50;7.03;;;;;;;17.03;100.00;96830.41;5079362;28;20219;-72
2021/09/28 02:03:54;;;;;;;11.25;4.20;;;;;;;16.79;100.00;96825.63;5079470;28;20679;-72
2021/09/28 02:06:22;;;;;;;6.80;4.80;;;;;;;17.04;100.00;96830.19;5078874;28;20507;-72
2021/09/28 02:08:49;;;;;;;7.97;4.88;;;;;;;16.87;100.00;96834.25;5079461;28;20500;-72
2021/09/28 02:11:16;;;;;;;8.77;4.50;;;;;;;16.83;100.00;96837.53;5079735;28;20227;-72
2021/09/28 02:13:44;;;;;;;6.22;4.07;;;;;;;16.95;100.00;96836.72;5079482;28;20849;-72
2021/09/28 02:16:11;;;;;;;6.60;4.10;;;;;;;16.81;100.00;96855.53;5078164;28;20683;-71
2021/09/28 02:18:38;;;;;;;5.18;3.70;;;;;;;16.85;100.00;96844.31;5079284;28;20222;-71
2021/09/28 02:21:04;;;;;;;4.80;3.50;;;;;;;16.91;100.00;96845.34;5079493;28;20235;-72
2021/09/28 02:23:31;;;;;;;4.20;2.92;;;;;;;17.08;100.00;96846.59;5079170;28;20577;-71
2021/09/28 02:25:57;;;;;;;2.22;1.70;;;;;;;16.76;100.00;96842.00;5078637;28;20203;-72
2021/09/28 02:28:24;;;;;;;2.10;1.83;;;;;;;16.97;99.94;96839.19;5078802;28;20203;-72
2021/09/28 02:30:52;;;;;;;2.10;1.90;;;;;;;16.94;99.67;96835.09;5076640;28;20247;-72
2021/09/28 02:33:18;;;;;;;3.25;1.70;;;;;;;16.94;98.90;96835.09;5079223;28;20204;-71
2021/09/28 02:35:45;;;;;;;2.05;1.40;;;;;;;16.84;98.49;96832.00;5078340;28;20200;-72
2021/09/28 02:38:12;;;;;;;1.77;1.50;;;;;;;16.74;99.15;96849.38;5078653;28;20207;-72
2021/09/28 02:40:39;;;;;;;1.40;1.10;;;;;;;16.50;98.71;96848.06;5078817;28;20227;-72
2021/09/28 02:43:05;;;;;;;0.60;0.60;;;;;;;16.30;98.88;96856.97;5078617;28;20203;-72
2021/09/28 02:45:32;;;;;;;0.90;0.70;;;;;;;16.21;99.00;96855.44;5078220;28;20423;-71
2021/09/28 02:48:00;;;;;;;1.63;0.65;;;;;;;16.37;97.75;96863.16;5078833;28;20206;-72
2021/09/28 02:50:26;;;;;;;1.00;0.60;;;;;;;16.21;97.81;96851.97;5078117;28;20196;-72
2021/09/28 02:52:53;;;;;;;0.88;0.50;;;;;;;16.14;97.15;96859.91;5079066;28;20668;-72
2021/09/28 02:55:19;;;;;;;0.47;0.40;;;;;;;15.88;97.29;96862.44;5078593;28;20215;-71
2021/09/28 02:57:46;;;;;;;1.02;0.50;;;;;;;15.85;97.76;96862.78;5077707;28;20199;-71
2021/09/28 03:00:13;;;;;;;1.48;0.68;;;;;;;15.82;97.76;96861.53;5078468;28;20581;-72
2021/09/28 03:02:40;;;;;;;0.50;0.50;;;;;;;15.72;98.47;96864.56;5078783;28;20223;-72
2021/09/28 03:05:08;;;;;;;0.85;0.50;;;;;;;15.83;97.23;96861.34;5078293;28;20200;-72
2021/09/28 03:07:35;;;;;;;0.57;0.57;;;;;;;15.78;95.05;96860.28;5077702;28;20204;-72
2021/09/28 03:10:01;;;;;;;1.15;0.57;;;;;;;15.53;96.15;96875.00;5078655;28;20200;-72
2021/09/28 03:12:27;;;;;;;1.17;0.50;;;;;;;15.52;94.63;96870.72;5077852;28;20895;-72
2021/09/28 03:14:54;;;;;;;1.17;0.50;;;;;;;15.46;94.60;96876.78;5077868;28;20219;-72
2021/09/28 03:17:21;;;;;;;1.02;0.70;;;;;;;15.42;95.22;96876.34;5077527;28;20204;-72
2021/09/28 03:19:47;;;;;;;1.90;0.63;;;;;;;15.40;94.64;96872.25;5078536;28;20224;-72
2021/09/28 03:22:15;;;;;;;0.93;0.60;;;;;;;15.38;93.21;96883.06;5077925;28;20223;-72
2021/09/28 03:24:41;;;;;;;1.67;0.70;;;;;;;15.17;93.39;96882.19;5078605;28;20683;-71
2021/09/28 03:27:08;;;;;;;1.38;0.68;;;;;;;15.22;93.88;96882.50;5077485;28;20200;-72
2021/09/28 03:29:34;;;;;;;1.73;0.90;;;;;;;15.04;94.87;96886.56;5077458;28;20203;-71
2021/09/28 03:32:01;;;;;;;2.67;0.63;;;;;;;14.97;95.34;96886.50;5077825;28;20224;-72
2021/09/28 03:34:28;;;;;;;0.73;0.52;;;;;;;14.77;96.65;96884.66;5078597;28;20203;-72
2021/09/28 03:36:54;;;;;;;1.55;0.80;;;;;;;14.82;97.22;96891.03;5076891;28;20203;-72
2021/09/28 03:39:22;;;;;;;1.52;0.60;;;;;;;14.93;97.50;96898.50;5077470;28;20574;-72
2021/09/28 03:41:48;;;;;;;2.30;0.80;;;;;;;15.03;96.74;96893.72;5077974;28;20686;-72
2021/09/28 03:44:15;;;;;;;1.15;0.68;;;;;;;15.02;96.34;96897.38;5078101;28;20208;-72
2021/09/28 03:46:41;;;;;;;0.68;0.68;;;;;;;14.76;97.09;96909.53;5077199;28;20200;-72
2021/09/28 03:49:08;;;;;;;1.60;0.90;;;;;;;14.68;97.69;96907.78;5077127;28;20219;-72
2021/09/28 03:51:34;;;;;;;1.40;0.70;;;;;;;14.74;97.66;96911.56;5077391;28;20567;-71
2021/09/28 03:54:01;;;;;;;0.90;0.73;;;;;;;14.93;96.76;96911.78;5077736;28;20204;-72
2021/09/28 03:56:29;;;;;;;3.00;0.80;;;;;;;15.19;96.25;96911.25;5076497;28;20944;-72
2021/09/28 03:58:55;;;;;;;1.75;0.80;;;;;;;14.98;96.40;96906.75;5077345;28;20204;-71
2021/09/28 04:01:22;;;;;;;1.70;0.93;;;;;;;15.23;95.85;96910.69;5077158;28;20242;-72
2021/09/28 04:03:48;;;;;;;1.10;1.00;;;;;;;15.02;96.39;96910.66;5077465;28;20210;-72
2021/09/28 04:06:15;;;;;;;2.65;1.30;;;;;;;14.85;97.76;96911.88;5076486;28;20204;-72
2021/09/28 04:08:41;;;;;;;1.23;1.13;;;;;;;14.98;96.63;96913.84;5076689;28;20220;-71
2021/09/28 04:11:08;;;;;;;1.75;1.35;;;;;;;14.65;98.14;96913.47;5077105;28;20243;-72
2021/09/28 04:13:35;;;;;;;3.08;1.20;;;;;;;15.10;96.74;96910.53;5077526;28;20202;-72
2021/09/28 04:16:05;;;;;;;2.15;1.23;;;;;;;14.99;96.82;96926.94;5076383;28;20207;-72
2021/09/28 04:18:32;;;;;;;3.75;1.20;;;;;;;15.00;96.93;96923.28;5076349;28;20200;-72
2021/09/28 04:20:58;;;;;;;1.40;1.20;;;;;;;15.13;96.49;96931.38;5076012;28;20231;-72
2021/09/28 04:23:25;;;;;;;2.80;1.55;;;;;;;15.22;94.92;96926.81;5077289;28;20211;-72
2021/09/28 04:25:51;;;;;;;2.10;1.38;;;;;;;15.27;94.91;96930.53;5076375;28;20838;-72
2021/09/28 04:28:18;;;;;;;1.52;1.38;;;;;;;14.95;96.19;96933.63;5077029;28;20204;-71
2021/09/28 04:30:46;;;;;;;3.50;1.70;;;;;;;14.92;96.00;96934.00;5077080;28;20228;-72
2021/09/28 04:33:12;;;;;;;1.50;1.40;;;;;;;14.73;96.08;96934.59;5076316;28;20204;-72
2021/09/28 04:35:39;;;;;;;4.30;1.90;;;;;;;14.64;95.57;96933.06;5076759;28;20203;-71
2021/09/28 04:38:05;;;;;;;4.75;1.98;;;;;;;14.58;95.22;96929.50;5076768;28;20218;-71
2021/09/28 04:40:32;;;;;;;4.75;3.13;;;;;;;14.60;94.78;96927.47;5075930;28;20399;-72
2021/09/28 04:42:58;;;;;;;3.13;1.80;;;;;;;14.70;94.39;96931.47;5075445;28;20204;-71
2021/09/28 04:45:25;;;;;;;5.05;2.00;;;;;;;14.72;94.54;96929.47;5077228;28;20203;-72
2021/09/28 04:47:53;;;;;;;2.80;2.00;;;;;;;14.81;95.24;96945.09;5076174;28;20565;-72
2021/09/28 04:50:19;;;;;;;2.88;2.38;;;;;;;14.80;94.64;96947.94;5076303;28;20384;-73
2021/09/28 04:52:46;;;;;;;5.18;2.20;;;;;;;14.78;94.28;96945.47;5076936;28;20658;-72
2021/09/28 04:55:12;;;;;;;6.93;2.50;;;;;;;14.65;94.90;96950.63;5076917;28;20204;-73
2021/09/28 04:57:39;;;;;;;4.95;2.33;;;;;;;14.83;94.71;96952.91;5075497;28;20207;-73
2021/09/28 05:00:07;;;;;;;5.63;2.63;;;;;;;14.95;94.65;96960.16;5076698;28;20235;-73
2021/09/28 05:02:33;;;;;;;3.25;2.38;;;;;;;14.95;94.01;96962.81;5075678;28;20226;-73
2021/09/28 05:05:01;;;;;;;4.17;2.60;;;;;;;15.05;93.63;96958.06;5076159;28;20204;-73
2021/09/28 05:07:27;;;;;;;8.30;2.90;;;;;;;14.97;93.36;96963.47;5075881;28;20596;-73
2021/09/28 05:09:54;;;;;;;6.28;2.88;;;;;;;14.98;93.37;96967.78;5076354;28;20208;-73
2021/09/28 05:12:21;;;;;;;5.10;2.83;;;;;;;15.23;92.46;96965.63;5075737;28;20366;-73
2021/09/28 05:14:47;;;;;;;4.38;2.75;;;;;;;15.15;92.99;96976.31;5076232;28;20212;-73
2021/09/28 05:17:14;;;;;;;4.93;2.85;;;;;;;15.19;92.91;96970.47;5075657;28;20208;-73
2021/09/28 05:19:40;;;;;;;4.90;2.95;;;;;;;15.42;92.10;96979.13;5076168;28;20215;-74
2021/09/28 05:22:08;;;;;;;5.13;2.85;;;;;;;15.35;92.22;96968.44;5076728;28;20236;-73
2021/09/28 05:24:34;;;;;;;4.72;3.10;;;;;;;15.30;92.17;96970.03;5076634;28;20203;-73
2021/09/28 05:27:01;;;;;;;4.38;2.63;;;;;;;15.44;93.14;96964.66;5075955;28;20229;-73
2021/09/28 05:29:27;;;;;;;5.32;2.70;;;;;;;15.52;92.43;96956.53;5076416;28;20222;-73
2021/09/28 05:31:54;;;;;;;5.80;3.28;;;;;;;15.67;91.26;96953.81;5079127;28;20224;-73
2021/09/28 05:34:21;;;;;;;5.45;2.90;;;;;;;15.76;91.52;96956.16;5080937;28;20214;-73
2021/09/28 05:36:48;;;;;;;6.88;3.03;;;;;;;15.43;91.41;96967.50;5080430;28;20240;-73
2021/09/28 05:39:17;;;;;;;7.32;3.67;;;;;;;15.57;91.63;96971.94;5080732;28;20203;-72
2021/09/28 05:41:43;;;;;;;6.57;3.53;;;;;;;15.34;91.76;96973.94;5080423;28;20580;-72
2021/09/28 05:44:09;;;;;;;8.90;3.33;;;;;;;15.17;92.39;96983.09;5080504;28;20206;-72
2021/09/28 05:46:36;;;;;;;6.43;3.78;;;;;;;15.19;92.43;96980.28;5080527;28;20195;-72
2021/09/28 05:49:03;;;;;;;5.60;3.80;;;;;;;15.20;92.51;96980.09;5080308;28;20220;-72
2021/09/28 05:51:32;;;;;;;5.47;3.70;;;;;;;15.29;92.01;96984.31;5080829;28;20220;-72
2021/09/28 05:54:01;;;;;;;8.90;4.78;;;;;;;15.33;92.24;96982.91;5080711;28;20210;-72
2021/09/28 05:56:29;;;;;;;5.85;4.00;;;;;;;15.28;91.57;96985.31;5079652;28;20598;-72
2021/09/28 05:58:55;;;;;;;10.00;4.40;;;;;;;15.17;92.31;96985.75;5080238;28;20249;-73
2021/09/28 06:01:22;;;;;;;12.93;4.32;;;;;;;15.23;91.60;96987.69;5080147;28;20238;-73
2021/09/28 06:03:48;;;;;;;7.97;4.55;;;;;;;15.27;91.14;96988.97;5080668;28;20219;-72
2021/09/28 06:06:15;;;;;;;9.27;4.53;;;;;;;15.29;90.80;96987.75;5079449;28;20208;-72
2021/09/28 06:08:41;;;;;;;6.45;4.20;;;;;;;15.23;91.31;96987.69;5080239;28;20207;-72
2021/09/28 06:11:08;;;;;;;9.15;4.90;;;;;;;15.37;90.53;96986.84;5079977;28;20575;-73
2021/09/28 06:13:36;;;;;;;12.13;4.60;;;;;;;15.60;90.08;96990.94;5079990;28;20513;-73
2021/09/28 06:16:02;;;;;;;8.38;4.10;;;;;;;15.56;89.87;96991.53;5079750;28;20215;-73
2021/09/28 06:18:29;;;;;;;8.35;4.43;;;;;;;15.59;88.89;96999.13;5079784;28;20200;-73
2021/09/28 06:20:55;;;;;;;10.18;4.70;;;;;;;15.55;89.83;96998.66;5079420;28;20228;-73
2021/09/28 06:23:22;;;;;;;11.73;5.00;;;;;;;15.65;88.23;97004.50;5080949;28;20203;-73
2021/09/28 06:25:48;;;;;;;9.18;4.30;;;;;;;15.48;88.90;97004.94;5079147;28;20216;-72
2021/09/28 06:28:15;;;;;;;7.97;4.30;;;;;;;15.66;87.41;97002.69;5079847;28;20215;-72
2021/09/28 06:30:43;;;;;;;8.30;4.70;;;;;;;15.89;88.48;97001.44;5080441;28;20203;-73
2021/09/28 06:33:09;;;;;;;9.05;4.32;;;;;;;15.87;88.36;97009.63;5079997;28;20208;-73
2021/09/28 06:35:36;;;;;;;6.28;4.10;;;;;;;15.74;88.18;97007.84;5078684;28;20211;-72
2021/09/28 06:38:04;;;;;;;8.70;4.18;;;;;;;15.89;87.46;97002.25;5079834;28;20566;-73
2021/09/28 06:40:30;;;;;;;7.25;3.97;;;;;;;15.67;87.94;97004.28;5079293;28;20232;-72
2021/09/28 06:42:57;;;;;;;12.15;4.90;;;;;;;15.61;88.34;97007.72;5078875;28;20243;-72
2021/09/28 06:45:23;;;;;;;8.88;4.20;;;;;;;15.99;86.88;97002.78;5079211;28;20204;-73
2021/09/28 06:47:51;;;;;;;7.35;3.83;;;;;;;15.69;86.83;97004.94;5078979;28;20208;-72
2021/09/28 06:50:18;;;;;;;8.73;3.88;;;;;;;15.41;87.31;97004.03;5079287;28;20204;-72
2021/09/28 06:52:45;;;;;;;8.75;3.97;;;;;;;15.77;86.81;97007.47;5079627;28;20230;-72
2021/09/28 06:55:11;;;;;;;8.00;3.88;;;;;;;15.96;85.37;96999.66;5079333;28;20203;-73
2021/09/28 06:57:38;;;;;;;7.93;4.38;;;;;;;16.04;86.30;97004.88;5078574;28;20203;-73
2021/09/28 07:00:05;;;;;;;14.63;8.65;;;;;;;15.81;85.23;97001.59;5079383;28;20207;-72
2021/09/28 07:02:32;;;;;;;10.70;4.88;;;;;;;15.76;85.95;97004.00;5079206;28;21042;-73
2021/09/28 07:05:00;;;;;;;7.60;4.05;;;;;;;15.89;86.38;97001.44;5079072;28;20203;-72
2021/09/28 07:07:27;;;;;;;7.70;4.43;;;;;;;15.64;86.96;96999.38;5078296;28;20200;-72
2021/09/28 07:09:54;;;;;;;10.07;3.83;;;;;;;15.62;87.49;96998.75;5079510;28;20649;-72
2021/09/28 07:12:20;;;;;;;12.52;4.85;;;;;;;15.62;87.06;97004.06;5078534;28;20711;-73
2021/09/28 07:14:47;;;;;;;10.32;3.92;;;;;;;15.69;87.02;97004.94;5079038;28;20595;-72
2021/09/28 07:17:13;;;;;;;12.50;4.43;;;;;;;15.58;86.46;97008.94;5078142;28;20226;-73
2021/09/28 07:19:40;;;;;;;11.77;4.32;;;;;;;15.57;87.46;97004.63;5078795;28;20203;-72
2021/09/28 07:22:08;;;;;;;8.93;4.38;;;;;;;15.69;86.20;97007.59;5078593;28;20235;-72
2021/09/28 07:24:34;;;;;;;18.77;4.65;;;;;;;15.70;85.98;97009.25;5079181;28;20206;-73
2021/09/28 07:27:01;;;;;;;9.10;3.60;;;;;;;15.86;86.18;96999.19;5074399;28;20200;-72
2021/09/28 07:29:27;;;;;;;5.30;3.60;;;;;;;16.03;85.06;96998.72;5078149;28;20204;-72
2021/09/28 07:31:54;;;;;;;8.05;3.55;;;;;;;16.02;84.87;96994.41;5078168;28;20220;-73
2021/09/28 07:34:20;;;;;;;9.00;4.03;;;;;;;15.78;84.85;96993.16;5077329;28;20929;-72
2021/09/28 07:36:47;;;;;;;9.25;3.67;;;;;;;16.08;84.79;96992.84;5076618;28;20620;-73
2021/09/28 07:39:15;;;;;;;8.73;3.85;;;;;;;16.27;83.52;97000.19;5077227;28;20206;-73
2021/09/28 07:41:41;;;;;;;11.32;3.95;;;;;;;16.23;82.91;96998.84;5077428;28;20244;-73
2021/09/28 07:44:08;;;;;;;7.43;4.07;;;;;;;16.59;82.58;96998.53;5077187;28;20200;-73
2021/09/28 07:46:34;;;;;;;7.03;3.55;;;;;;;16.57;82.03;96997.09;5076552;28;20204;-72
2021/09/28 07:49:01;;;;;;;9.23;3.80;;;;;;;16.73;79.18;97002.13;5077763;28;20204;-73
2021/09/28 07:51:28;;;;;;;7.82;3.80;;;;;;;16.52;81.30;96999.50;5077000;28;20216;-73
2021/09/28 07:53:54;;;;;;;7.57;4.00;;;;;;;16.75;77.80;97002.72;5076786;28;20627;-73
2021/09/28 07:56:22;;;;;;;7.95;3.55;;;;;;;17.10;77.67;96997.97;5075947;28;20207;-73
2021/09/28 07:58:49;;;;;;;9.38;3.78;;;;;;;16.71;78.51;97002.31;5077070;28;20207;-73
2021/09/28 08:01:16;;;;;;;8.18;3.15;;;;;;;17.05;79.40;97004.13;5077565;28;20232;-73
2021/09/28 08:03:42;;;;;;;8.43;3.28;;;;;;;16.90;78.07;97004.25;5077773;28;20546;-73
2021/09/28 08:06:09;;;;;;;9.45;3.45;;;;;;;16.90;78.48;97009.56;5077052;28;20226;-73
2021/09/28 08:08:35;;;;;;;8.70;3.83;;;;;;;17.03;77.51;97014.97;5077844;28;20214;-73
2021/09/28 08:11:02;;;;;;;7.97;3.40;;;;;;;16.92;78.58;97014.72;5077304;28;20224;-73
2021/09/28 08:13:29;;;;;;;7.65;3.38;;;;;;;16.96;78.88;97021.28;5077927;28;20203;-73
2021/09/28 08:15:56;;;;;;;6.07;3.10;;;;;;;17.08;75.48;97018.69;5077011;28;20695;-73
2021/09/28 08:18:22;;;;;;;11.55;3.80;;;;;;;17.28;76.91;97016.13;5077496;28;20212;-73
2021/09/28 08:20:49;;;;;;;7.60;3.28;;;;;;;17.14;77.22;97009.06;5077433;28;20243;-73
2021/09/28 08:23:17;;;;;;;6.93;3.65;;;;;;;17.38;77.56;97004.06;5077787;28;20216;-73
2021/09/28 08:25:59;;;;;;;8.50;3.40;;;;;;;17.60;75.29;97004.75;5076974;28;20714;-73
2021/09/28 08:31:12;;;;;;;7.40;3.08;;;;;;;18.08;72.35;97004.41;5077329;28;20245;-73
2021/09/28 08:33:39;;;;;;;9.43;3.22;;;;;;;17.64;74.61;97003.31;5077679;28;20647;-73
2021/09/28 08:36:07;;;;;;;7.07;2.97;;;;;;;18.15;73.07;96997.22;5076740;28;20215;-73
2021/09/28 08:38:33;;;;;;;14.30;3.67;;;;;;;18.13;71.94;96997.44;5077227;28;20199;-73
2021/09/28 08:41:01;;;;;;;9.50;3.28;;;;;;;18.16;73.42;96998.88;5077632;28;20228;-73
2021/09/28 08:43:28;;;;;;;5.15;2.92;;;;;;;17.91;71.63;96987.97;5077288;28;20211;-73
2021/09/28 08:45:55;;;;;;;6.68;3.15;;;;;;;17.56;74.30;96991.00;5076524;28;20199;-73
2021/09/28 08:48:22;;;;;;;9.00;3.80;;;;;;;17.66;76.39;96991.44;5077230;28;20227;-73
2021/09/28 08:50:52;;;;;;;7.95;3.60;;;;;;;17.96;73.17;96987.34;5077434;28;20224;-73
2021/09/28 08:53:19;;;;;;;10.45;3.75;;;;;;;17.93;73.45;96977.91;5077023;28;20763;-73
2021/09/28 08:55:46;;;;;;;7.18;4.00;;;;;;;17.59;73.58;96984.44;5075920;28;20211;-73
2021/09/28 08:58:14;;;;;;;7.65;3.53;;;;;;;17.58;74.30;96983.63;5077803;28;20208;-73
2021/09/28 09:00:41;;;;;;;7.18;3.40;;;;;;;17.74;73.66;96973.41;5077052;28;20204;-73
2021/09/28 09:03:08;;;;;;;6.15;3.13;;;;;;;17.80;72.97;96975.25;5077034;28;20250;-73
2021/09/28 09:05:46;;;;;;;7.07;3.47;;;;;;;18.24;70.33;96972.84;5075781;28;20200;-73
2021/09/28 09:08:14;;;;;;;7.68;3.33;;;;;;;17.95;70.62;96975.06;5076458;28;20200;-73
2021/09/28 09:10:40;;;;;;;7.90;3.63;;;;;;;18.07;72.37;96973.41;5076770;28;21164;-73
2021/09/28 09:13:07;;;;;;;8.82;3.42;;;;;;;18.09;70.76;96964.19;5077228;28;20196;-73
2021/09/28 09:15:35;;;;;;;9.45;3.58;;;;;;;18.28;70.93;96970.56;5076206;28;20206;-73
2021/09/28 09:18:05;;;;;;;8.52;3.90;;;;;;;18.24;71.79;96956.84;5075486;28;20344;-73
2021/09/28 09:20:38;;;;;;;6.28;4.07;;;;;;;18.05;73.50;96964.78;5076181;28;20569;-73
2021/09/28 09:23:21;;;;;;;5.95;4.13;;;;;;;18.02;70.57;96971.34;5076143;28;20242;-73
2021/09/28 09:25:49;;;;;;;10.18;4.18;;;;;;;17.68;72.93;96967.22;5075963;28;21044;-73
2021/09/28 09:28:31;;;;;;;8.98;3.63;;;;;;;17.80;72.74;96966.44;5076911;28;21056;-73
2021/09/28 09:31:07;;;;;;;12.10;4.32;;;;;;;17.58;73.03;96972.13;5076451;28;20219;-73
2021/09/28 09:33:34;;;;;;;10.77;4.30;;;;;;;17.37;73.03;96962.44;5076831;28;21171;-73
2021/09/28 09:36:02;;;;;;;8.25;4.15;;;;;;;17.93;71.78;96956.59;5075849;28;20211;-73
2021/09/28 09:38:28;;;;;;;8.73;3.85;;;;;;;18.04;69.86;96963.19;5076530;28;20200;-73
2021/09/28 09:40:55;;;;;;;12.57;3.30;;;;;;;18.09;69.73;96960.72;5076450;28;20223;-73
2021/09/28 09:43:30;;;;;;;8.00;3.45;;;;;;;18.31;69.25;96954.97;5076415;28;21050;-73
2021/09/28 09:46:07;;;;;;;9.15;4.15;;;;;;;18.19;69.45;96958.47;5076193;28;20214;-73
2021/09/28 09:48:34;;;;;;;10.10;4.10;;;;;;;18.00;69.14;96962.75;5076513;28;20206;-73
2021/09/28 09:51:06;;;;;;;8.13;3.90;;;;;;;18.60;68.12;96952.66;5075781;28;21197;-73
2021/09/28 09:53:34;;;;;;;6.28;3.42;;;;;;;18.91;68.42;96947.41;5076446;28;20199;-73
2021/09/28 09:56:00;;;;;;;7.72;4.22;;;;;;;19.07;62.61;96952.34;5075868;28;20215;-73
2021/09/28 09:58:27;;;;;;;6.45;3.35;;;;;;;19.08;62.91;96948.59;5076149;28;21238;-74
2021/09/28 10:00:54;;;;;;;10.18;3.65;;;;;;;19.04;62.75;96950.03;5076684;28;20220;-74
2021/09/28 10:03:21;;;;;;;6.65;4.22;;;;;;;19.17;65.42;96944.66;5078890;28;20876;-74
2021/09/28 10:05:48;;;;;;;10.20;4.30;;;;;;;18.94;67.23;96947.81;5077752;28;20215;-74
2021/09/28 10:08:16;;;;;;;6.85;4.22;;;;;;;18.68;68.34;96948.94;5076970;28;20207;-73
2021/09/28 10:10:44;;;;;;;10.95;4.32;;;;;;;18.64;68.64;96950.41;5077728;28;20206;-74
2021/09/28 10:13:51;;;;;;;10.80;4.55;;;;;;;18.85;68.16;96947.44;5078129;28;20748;-74
2021/09/28 10:16:38;;;;;;;12.52;4.90;;;;;;;18.77;68.87;96945.00;5056608;28;20275;-72
2021/09/28 10:19:29;;;;;;;7.78;4.70;;;;;;;18.82;67.95;96938.00;5078558;28;20211;-72
2021/09/28 10:21:58;;;;;;;9.07;5.07;;;;;;;18.34;69.50;96936.69;5079332;28;20231;-72
2021/09/28 10:24:33;;;;;;;14.32;4.68;;;;;;;18.56;69.14;96938.09;5079888;28;20200;-72
2021/09/28 10:27:32;;;;;;;12.82;5.03;;;;;;;19.00;67.13;96927.44;5079222;28;20203;-72
2021/09/28 10:29:59;;;;;;;6.95;3.40;;;;;;;18.62;66.78;96939.94;5079703;28;20204;-72
2021/09/28 10:32:44;;;;;;;7.90;2.80;;;;;;;19.24;64.49;96932.91;5079853;28;20219;-72
2021/09/28 10:35:14;;;;;;;4.70;3.10;;;;;;;19.02;63.56;96920.06;5079857;28;20203;-72
2021/09/28 10:37:55;;;;;;;5.38;3.33;;;;;;;19.39;68.89;96914.75;5077511;28;20220;-72
2021/09/28 10:40:51;;;;;;;6.85;3.80;;;;;;;19.56;60.77;96923.06;5078536;28;20988;-72
2021/09/28 10:43:30;;;;;;;6.60;3.20;;;;;;;19.68;62.71;96920.31;5079583;28;20227;-72
2021/09/28 10:46:00;;;;;;;12.38;4.32;;;;;;;19.46;64.93;96920.06;5079118;28;20590;-72
2021/09/28 10:48:38;;;;;;;8.75;4.05;;;;;;;19.59;64.08;96920.81;5079159;28;20285;-72
2021/09/28 10:51:11;;;;;;;8.82;4.18;;;;;;;19.67;66.34;96918.66;5078997;28;20700;-72
2021/09/28 10:53:39;;;;;;;5.68;3.75;;;;;;;19.58;63.41;96914.59;5079473;28;20669;-72
2021/09/28 10:56:08;;;;;;;6.50;3.58;;;;;;;19.61;63.92;96902.66;5078497;28;20208;-72
2021/09/28 10:59:06;;;;;;;9.32;4.20;;;;;;;20.07;63.45;96889.78;5079341;28;20840;-72
2021/09/28 11:01:34;;;;;;;7.65;4.30;;;;;;;19.29;63.34;96894.88;5016742;28;20233;-73
2021/09/28 11:04:14;;;;;;;9.95;4.35;;;;;;;19.70;64.56;96893.34;5064612;28;20239;-73
2021/09/28 11:07:09;;;;;;;6.35;3.90;;;;;;;19.96;61.94;96877.94;5079246;28;20214;-74
2021/09/28 11:09:51;;;;;;;5.82;3.65;;;;;;;20.18;62.08;96870.34;5077985;28;20200;-74
2021/09/28 11:12:23;;;;;;;6.65;3.88;;;;;;;19.60;64.73;96874.28;5075925;28;20292;-74
2021/09/28 11:14:50;;;;;;;13.05;3.97;;;;;;;19.32;66.02;96870.38;5078972;28;20265;-74
2021/09/28 11:17:18;;;;;;;8.45;3.63;;;;;;;19.89;63.21;96858.41;5078558;28;20204;-74
2021/09/28 11:19:46;;;;;;;15.40;4.93;;;;;;;20.22;63.11;96864.31;5078119;28;21004;-73
2021/09/28 11:22:19;;;;;;;9.93;4.30;;;;;;;19.68;63.40;96855.31;5078277;28;20228;-73
2021/09/28 11:24:46;;;;;;;9.50;4.00;;;;;;;19.10;64.17;96864.53;5079289;28;20204;-74
2021/09/28 11:27:12;;;;;;;8.05;3.78;;;;;;;19.05;66.99;96861.69;5077573;28;20208;-72
2021/09/28 11:29:41;;;;;;;12.18;4.47;;;;;;;19.48;65.44;96860.00;5078276;28;20211;-72
2021/09/28 11:32:09;;;;;;;13.82;4.50;;;;;;;19.46;64.80;96851.34;5077898;28;20368;-74
2021/09/28 11:34:38;;;;;;;8.82;4.50;;;;;;;19.22;65.36;96841.47;5078691;28;20570;-73
2021/09/28 11:37:06;;;;;;;7.55;4.05;;;;;;;19.44;65.06;96841.94;5077707;28;20200;-74